createdAt,value
2022-08-09T00:00:21.166Z,26.40
2022-08-09T00:02:50.022Z,26.40
2022-08-09T00:06:18.515Z,26.40
2022-08-09T00:08:11.087Z,26.40
2022-08-09T00:10:40.598Z,26.40
2022-08-09T00:13:16.830Z,26.40
2022-08-09T00:15:59.015Z,26.30
2022-08-09T00:18:35.592Z,26.30
2022-08-09T00:21:08.605Z,26.30
2022-08-09T00:23:57.792Z,26.30
2022-08-09T00:26:30.006Z,26.30
2022-08-09T00:29:02.558Z,26.30
2022-08-09T00:31:59.786Z,26.30
2022-08-09T00:34:19.545Z,26.30
2022-08-09T00:36:48.174Z,26.30
2022-08-09T00:40:09.081Z,26.30
2022-08-09T00:44:11.446Z,26.30
2022-08-09T00:44:50.095Z,26.30
2022-08-09T00:47:16.999Z,26.30
2022-08-09T00:49:54.599Z,26.30
2022-08-09T00:52:30.388Z,26.30
2022-08-09T00:55:02.159Z,26.40
2022-08-09T00:57:34.814Z,26.40
2022-08-09T01:00:20.605Z,26.30
2022-08-09T01:03:02.889Z,26.20
2022-08-09T01:05:50.981Z,26.20
2022-08-09T01:08:49.674Z,26.10
2022-08-09T01:11:28.565Z,26.10
2022-08-09T01:14:07.563Z,26.00
2022-08-09T01:16:47.358Z,26.00
2022-08-09T01:19:51.665Z,26.00
2022-08-09T01:22:43.007Z,25.90
2022-08-09T01:25:52.132Z,25.90
2022-08-09T01:28:22.323Z,25.90
2022-08-09T01:30:53.062Z,25.90
2022-08-09T01:33:25.487Z,25.80
2022-08-09T01:36:04.284Z,25.80
2022-08-09T01:38:35.807Z,25.80
2022-08-09T01:41:12.050Z,25.70
2022-08-09T01:43:51.899Z,25.70
2022-08-09T01:46:29.884Z,25.70
2022-08-09T01:49:10.508Z,25.80
2022-08-09T01:51:53.722Z,25.70
2022-08-09T01:54:32.745Z,25.70
2022-08-09T01:57:15.047Z,25.70
2022-08-09T01:59:51.797Z,25.80
2022-08-09T02:02:31.288Z,25.70
2022-08-09T02:05:05.458Z,25.70
2022-08-09T02:08:39.998Z,25.80
2022-08-09T02:10:50.695Z,25.70
2022-08-09T02:13:21.852Z,25.70
2022-08-09T02:15:51.328Z,25.60
2022-08-09T02:18:23.054Z,25.60
2022-08-09T02:20:56.467Z,25.60
2022-08-09T02:23:32.053Z,25.60
2022-08-09T02:26:08.639Z,25.50
2022-08-09T02:28:57.466Z,25.50
2022-08-09T02:31:35.508Z,25.60
2022-08-09T02:34:13.649Z,25.50
2022-08-09T02:36:54.429Z,25.60
2022-08-09T02:39:33.543Z,25.50
2022-08-09T02:42:10.455Z,25.50
2022-08-09T02:44:50.403Z,25.50
2022-08-09T02:47:21.393Z,25.40
2022-08-09T02:50:01.282Z,25.40
2022-08-09T02:52:39.883Z,25.40
2022-08-09T02:55:20.431Z,25.30
2022-08-09T02:58:32.042Z,25.30
2022-08-09T03:00:57.641Z,25.20
2022-08-09T03:04:12.928Z,25.20
2022-08-09T03:06:15.061Z,25.10
2022-08-09T03:08:46.446Z,25.10
2022-08-09T03:12:06.693Z,25.10
2022-08-09T03:14:08.340Z,25.10
2022-08-09T03:16:41.816Z,25.10
2022-08-09T03:19:14.460Z,25.10
2022-08-09T03:22:03.373Z,25.10
2022-08-09T03:24:42.224Z,25.00
2022-08-09T03:27:21.636Z,25.00
2022-08-09T03:29:58.263Z,24.90
2022-08-09T03:32:34.054Z,25.10
2022-08-09T03:35:15.109Z,25.10
2022-08-09T03:37:56.027Z,25.10
2022-08-09T03:40:25.562Z,25.10
2022-08-09T03:42:58.275Z,25.00
2022-08-09T03:46:04.403Z,25.00
2022-08-09T03:48:12.150Z,25.00
2022-08-09T03:50:46.781Z,24.90
2022-08-09T03:53:16.663Z,24.90
2022-08-09T03:55:48.408Z,25.00
2022-08-09T03:58:16.992Z,24.90
2022-08-09T04:00:49.611Z,25.00
2022-08-09T04:03:24.575Z,24.90
2022-08-09T04:06:04.739Z,24.90
2022-08-09T04:08:33.172Z,24.90
2022-08-09T04:11:01.780Z,24.90
2022-08-09T04:14:37.578Z,24.80
2022-08-09T04:16:19.690Z,24.90
2022-08-09T04:18:51.147Z,24.90
2022-08-09T04:21:19.089Z,24.90
2022-08-09T04:23:53.802Z,24.90
2022-08-09T04:26:23.293Z,24.90
2022-08-09T04:28:50.674Z,25.00
2022-08-09T04:31:17.660Z,24.90
2022-08-09T04:33:51.566Z,24.90
2022-08-09T04:36:26.010Z,24.90
2022-08-09T04:38:54.690Z,24.90
2022-08-09T04:41:24.028Z,24.90
2022-08-09T04:44:06.025Z,24.80
2022-08-09T04:46:57.228Z,24.80
2022-08-09T04:49:52.060Z,24.80
2022-08-09T04:52:12.148Z,24.70
2022-08-09T04:54:45.868Z,24.70
2022-08-09T04:57:12.789Z,24.70
2022-08-09T04:59:39.941Z,24.70
2022-08-09T05:02:06.857Z,24.70
2022-08-09T05:04:35.254Z,24.70
2022-08-09T05:07:02.455Z,24.70
2022-08-09T05:09:42.358Z,24.70
2022-08-09T05:12:16.865Z,24.90
2022-08-09T05:14:43.749Z,24.90
2022-08-09T05:17:15.288Z,25.00
2022-08-09T05:19:59.028Z,25.00
2022-08-09T05:22:35.696Z,25.20
2022-08-09T05:25:15.192Z,25.30
2022-08-09T05:27:46.389Z,25.40
2022-08-09T05:30:17.522Z,25.60
2022-08-09T05:32:50.669Z,25.70
2022-08-09T05:35:18.348Z,25.70
2022-08-09T05:37:50.131Z,25.70
2022-08-09T05:40:18.251Z,25.80
2022-08-09T05:42:45.605Z,25.90
2022-08-09T05:45:14.493Z,26.00
2022-08-09T05:47:51.772Z,26.20
2022-08-09T05:50:30.250Z,26.40
2022-08-09T05:53:02.877Z,26.90
2022-08-09T05:55:31.382Z,31.00
2022-08-09T05:57:58.773Z,33.30
2022-08-09T06:00:32.963Z,32.50
2022-08-09T06:03:02.461Z,29.20
2022-08-09T06:05:57.817Z,28.20
2022-08-09T06:08:24.337Z,27.70
2022-08-09T06:10:56.958Z,27.10
2022-08-09T06:13:28.662Z,27.20
2022-08-09T06:16:04.988Z,27.70
2022-08-09T06:18:33.493Z,30.70
2022-08-09T06:21:01.548Z,33.00
2022-08-09T06:23:54.976Z,33.10
2022-08-09T06:26:21.071Z,32.20
2022-08-09T06:29:00.945Z,29.20
2022-08-09T06:31:40.034Z,27.90
2022-08-09T06:34:20.113Z,27.80
2022-08-09T06:36:50.604Z,27.60
2022-08-09T06:39:25.891Z,27.80
2022-08-09T06:42:13.036Z,31.50
2022-08-09T06:44:40.474Z,34.40
2022-08-09T06:47:08.423Z,36.00
2022-08-09T06:50:11.577Z,37.20
2022-08-09T06:52:23.562Z,37.00
2022-08-09T06:54:52.145Z,35.70
2022-08-09T06:57:25.821Z,34.90
2022-08-09T07:00:50.099Z,35.60
2022-08-09T07:02:57.779Z,36.70
2022-08-09T07:05:25.494Z,37.10
2022-08-09T07:08:12.423Z,37.10
2022-08-09T07:10:39.595Z,37.20
2022-08-09T07:13:27.688Z,36.80
2022-08-09T07:16:41.196Z,37.40
2022-08-09T07:18:40.792Z,36.20
2022-08-09T07:21:08.264Z,37.70
2022-08-09T07:23:36.244Z,37.10
2022-08-09T07:26:04.297Z,37.30
2022-08-09T07:28:34.962Z,37.40
2022-08-09T07:31:04.823Z,36.30
2022-08-09T07:33:53.024Z,36.30
2022-08-09T07:36:19.872Z,36.60
2022-08-09T07:38:56.815Z,36.80
2022-08-09T07:41:27.646Z,36.50
2022-08-09T07:44:00.192Z,35.80
2022-08-09T07:46:27.897Z,35.00
2022-08-09T07:48:59.263Z,33.30
2022-08-09T07:52:04.771Z,31.10
2022-08-09T07:54:19.241Z,30.00
2022-08-09T07:56:55.258Z,29.90
2022-08-09T07:59:25.000Z,29.90
2022-08-09T08:01:55.746Z,30.60
2022-08-09T08:04:31.930Z,30.80
2022-08-09T08:07:09.541Z,30.80
2022-08-09T08:09:55.279Z,31.00
2022-08-09T08:12:36.649Z,31.00
2022-08-09T08:15:04.854Z,30.80
2022-08-09T08:17:54.229Z,30.80
2022-08-09T08:20:29.053Z,30.70
2022-08-09T08:23:03.680Z,30.70
2022-08-09T08:25:48.460Z,30.70
2022-08-09T08:28:32.229Z,30.60
2022-08-09T08:31:06.137Z,30.80
2022-08-09T08:33:52.849Z,30.90
2022-08-09T08:36:29.051Z,30.90
2022-08-09T08:38:58.370Z,31.10
2022-08-09T08:41:27.077Z,31.10
2022-08-09T08:44:14.588Z,31.20
2022-08-09T08:47:02.597Z,31.00
2022-08-09T08:49:38.934Z,31.20
2022-08-09T08:52:58.019Z,30.80
2022-08-09T08:55:06.119Z,30.90
2022-08-09T08:57:35.387Z,31.10
2022-08-09T09:00:13.168Z,31.10
2022-08-09T09:03:00.372Z,31.00
2022-08-09T09:05:59.117Z,31.20
2022-08-09T09:08:29.709Z,31.40
2022-08-09T09:11:03.322Z,31.50
2022-08-09T09:13:50.202Z,31.60
2022-08-09T09:16:35.167Z,31.60
2022-08-09T09:22:13.946Z,31.80
2022-08-09T09:24:47.474Z,32.00
2022-08-09T09:28:06.776Z,31.60
2022-08-09T09:30:34.573Z,31.60
2022-08-09T09:33:15.707Z,31.90
2022-08-09T09:36:19.776Z,31.20
2022-08-09T09:38:52.434Z,31.70
2022-08-09T09:41:26.373Z,32.00
2022-08-09T09:44:10.791Z,32.00
2022-08-09T09:46:50.565Z,32.50
2022-08-09T09:49:31.963Z,32.80
2022-08-09T09:52:33.746Z,32.30
2022-08-09T09:55:16.099Z,32.00
2022-08-09T09:58:16.570Z,32.30
2022-08-09T10:00:55.241Z,32.60
2022-08-09T10:03:44.142Z,33.00
2022-08-09T10:06:12.743Z,33.00
2022-08-09T10:08:54.467Z,32.60
2022-08-09T10:12:00.557Z,32.50
2022-08-09T10:14:33.154Z,32.70
2022-08-09T10:17:50.875Z,33.10
2022-08-09T10:19:58.912Z,33.00
2022-08-09T10:22:34.637Z,33.10
2022-08-09T10:25:12.240Z,33.00
2022-08-09T10:27:57.937Z,33.50
2022-08-09T10:34:08.075Z,32.80
2022-08-09T10:36:11.636Z,33.40
2022-08-09T10:38:56.749Z,33.10
2022-08-09T10:41:27.996Z,32.90
2022-08-09T10:43:59.051Z,33.00
2022-08-09T10:46:54.727Z,32.60
2022-08-09T10:49:51.216Z,33.30
2022-08-09T10:52:45.103Z,33.10
2022-08-09T10:55:28.317Z,33.00
2022-08-09T10:58:00.535Z,33.50
2022-08-09T11:00:36.298Z,33.40
2022-08-09T11:03:28.007Z,33.10
2022-08-09T11:06:24.167Z,33.60
2022-08-09T11:08:53.870Z,33.60
2022-08-09T11:11:23.333Z,33.00
2022-08-09T11:14:28.340Z,33.30
2022-08-09T11:16:57.215Z,33.80
2022-08-09T11:20:19.691Z,34.00
2022-08-09T11:22:44.872Z,33.50
2022-08-09T11:25:25.736Z,33.60
2022-08-09T11:28:07.901Z,33.10
2022-08-09T11:30:48.060Z,33.70
2022-08-09T11:33:18.116Z,34.10
2022-08-09T11:35:58.949Z,33.60
2022-08-09T11:38:32.166Z,33.10
2022-08-09T11:41:13.602Z,33.10
2022-08-09T11:43:48.675Z,33.90
2022-08-09T11:46:26.743Z,34.20
2022-08-09T11:49:00.217Z,34.50
2022-08-09T11:52:53.852Z,34.00
2022-08-09T11:54:28.965Z,34.20
2022-08-09T11:57:47.865Z,34.30
2022-08-09T12:00:30.813Z,34.20
2022-08-09T12:03:00.213Z,34.00
2022-08-09T12:05:48.106Z,33.80
2022-08-09T12:08:21.828Z,33.90
2022-08-09T12:10:53.002Z,34.30
2022-08-09T12:14:08.445Z,34.20
2022-08-09T12:16:38.560Z,34.40
2022-08-09T12:19:09.563Z,34.30
2022-08-09T12:21:50.785Z,34.40
2022-08-09T12:24:25.277Z,34.50
2022-08-09T12:29:00.215Z,34.90
2022-08-09T12:30:01.725Z,34.20
2022-08-09T12:32:44.254Z,33.80
2022-08-09T12:35:14.570Z,33.30
2022-08-09T12:37:51.769Z,33.40
2022-08-09T12:40:23.364Z,33.70
2022-08-09T12:42:52.891Z,34.10
2022-08-09T12:45:34.673Z,34.20
2022-08-09T12:48:20.124Z,34.10
2022-08-09T12:50:59.399Z,33.80
2022-08-09T12:53:38.668Z,34.00
2022-08-09T12:56:44.101Z,34.10
2022-08-09T12:59:09.293Z,33.90
2022-08-09T13:01:47.069Z,33.60
2022-08-09T13:04:33.241Z,33.80
2022-08-09T13:07:20.044Z,34.10
2022-08-09T13:10:05.904Z,33.60
2022-08-09T13:12:39.649Z,33.40
2022-08-09T13:15:08.200Z,34.10
2022-08-09T13:18:02.860Z,34.30
2022-08-09T13:20:37.234Z,34.20
2022-08-09T13:24:16.524Z,34.90
2022-08-09T13:25:58.389Z,34.70
2022-08-09T13:28:35.530Z,35.10
2022-08-09T13:32:13.347Z,35.10
2022-08-09T13:33:56.774Z,35.00
2022-08-09T13:36:41.667Z,34.20
2022-08-09T13:41:51.583Z,34.10
2022-08-09T13:42:12.882Z,34.40
2022-08-09T13:44:43.718Z,34.60
2022-08-09T13:47:27.737Z,34.90
2022-08-09T13:50:12.434Z,35.40
2022-08-09T13:52:41.900Z,34.60
2022-08-09T13:55:13.834Z,35.00
2022-08-09T13:57:44.236Z,34.60
2022-08-09T14:00:15.705Z,34.20
2022-08-09T14:03:03.061Z,34.50
2022-08-09T14:05:59.912Z,34.80
2022-08-09T14:08:23.141Z,34.20
2022-08-09T14:10:52.866Z,34.40
2022-08-09T14:14:16.332Z,34.20
2022-08-09T14:16:14.878Z,34.30
2022-08-09T14:18:45.826Z,34.30
2022-08-09T14:21:18.531Z,34.30
2022-08-09T14:23:54.687Z,34.40
2022-08-09T14:26:30.102Z,34.10
2022-08-09T14:29:01.167Z,33.50
2022-08-09T14:31:49.488Z,33.50
2022-08-09T14:34:17.456Z,33.60
2022-08-09T14:36:55.265Z,33.80
2022-08-09T14:39:47.173Z,33.80
2022-08-09T14:42:09.402Z,33.50
2022-08-09T14:44:48.742Z,33.30
2022-08-09T14:47:46.600Z,33.10
2022-08-09T14:50:16.072Z,33.10
2022-08-09T14:52:50.143Z,32.70
2022-08-09T14:55:20.354Z,32.70
2022-08-09T14:57:49.194Z,33.20
2022-08-09T15:00:16.816Z,33.30
2022-08-09T15:02:47.771Z,33.30
2022-08-09T15:05:19.137Z,33.30
2022-08-09T15:07:56.467Z,33.30
2022-08-09T15:10:26.599Z,33.20
2022-08-09T15:12:54.442Z,33.10
2022-08-09T15:15:22.153Z,33.10
2022-08-09T15:17:52.349Z,33.10
2022-08-09T15:21:57.455Z,32.90
2022-08-09T15:24:02.658Z,33.00
2022-08-09T15:25:58.241Z,33.00
2022-08-09T15:28:27.390Z,32.60
2022-08-09T15:31:08.786Z,32.60
2022-08-09T15:34:15.501Z,32.60
2022-08-09T15:36:28.862Z,32.90
2022-08-09T15:39:00.554Z,32.90
2022-08-09T15:41:31.758Z,33.00
2022-08-09T15:44:02.005Z,32.90
2022-08-09T15:46:34.137Z,32.70
2022-08-09T15:49:23.494Z,32.90
2022-08-09T15:52:03.323Z,32.80
2022-08-09T15:54:49.103Z,32.90
2022-08-09T15:57:34.018Z,33.00
2022-08-09T16:00:13.736Z,33.00
2022-08-09T16:02:42.910Z,32.80
2022-08-09T16:05:16.530Z,32.70
2022-08-09T16:07:46.020Z,32.90
2022-08-09T16:10:38.434Z,32.90
2022-08-09T16:13:03.388Z,32.70
2022-08-09T16:16:04.453Z,32.40
2022-08-09T16:18:17.514Z,32.20
2022-08-09T16:20:46.562Z,32.20
2022-08-09T16:23:13.819Z,32.20
2022-08-09T16:25:41.872Z,32.20
2022-08-09T16:28:16.619Z,32.10
2022-08-09T16:30:44.693Z,32.10
2022-08-09T16:33:16.091Z,32.00
2022-08-09T16:35:57.980Z,32.00
2022-08-09T16:38:26.869Z,32.00
2022-08-09T16:40:53.972Z,32.00
2022-08-09T16:43:23.673Z,31.80
2022-08-09T16:45:54.111Z,31.70
2022-08-09T16:48:43.283Z,31.70
2022-08-09T16:51:14.108Z,31.60
2022-08-09T16:54:22.436Z,31.50
2022-08-09T16:56:34.896Z,31.50
2022-08-09T16:59:06.891Z,31.40
2022-08-09T17:01:37.749Z,31.40
2022-08-09T17:04:06.523Z,31.40
2022-08-09T17:08:40.221Z,31.20
2022-08-09T17:09:45.951Z,31.10
2022-08-09T17:12:08.605Z,31.00
2022-08-09T17:14:35.509Z,30.90
2022-08-09T17:17:03.856Z,30.80
2022-08-09T17:20:30.160Z,30.80
2022-08-09T17:22:39.172Z,30.70
2022-08-09T17:25:17.719Z,30.70
2022-08-09T17:27:49.545Z,30.70
2022-08-09T17:30:28.344Z,30.60
2022-08-09T17:33:05.255Z,30.40
2022-08-09T17:35:34.774Z,30.30
2022-08-09T17:38:13.903Z,30.30
2022-08-09T17:40:49.344Z,30.30
2022-08-09T17:43:34.379Z,30.20
2022-08-09T17:46:06.662Z,30.10
2022-08-09T17:48:51.697Z,30.00
2022-08-09T17:51:20.758Z,29.90
2022-08-09T17:53:51.780Z,29.80
2022-08-09T17:56:21.386Z,29.70
2022-08-09T17:58:48.290Z,29.70
2022-08-09T18:01:22.514Z,29.60
2022-08-09T18:03:54.675Z,29.60
2022-08-09T18:06:32.035Z,29.50
2022-08-09T18:09:04.516Z,29.40
2022-08-09T18:11:46.825Z,29.30
2022-08-09T18:14:23.061Z,29.20
2022-08-09T18:16:50.862Z,29.10
2022-08-09T18:20:59.519Z,29.00
2022-08-09T18:22:13.114Z,28.90
2022-08-09T18:24:40.457Z,28.90
2022-08-09T18:27:10.121Z,28.80
2022-08-09T18:30:41.059Z,28.70
2022-08-09T18:32:29.107Z,28.70
2022-08-09T18:34:56.033Z,28.60
2022-08-09T18:37:47.362Z,28.50
2022-08-09T18:40:11.345Z,28.40
2022-08-09T18:42:39.487Z,28.10
2022-08-09T18:45:11.147Z,27.90
2022-08-09T18:47:58.581Z,27.80
2022-08-09T18:50:25.816Z,27.70
2022-08-09T18:53:00.961Z,27.60
2022-08-09T18:55:29.230Z,27.50
2022-08-09T18:58:19.897Z,27.30
2022-08-09T19:00:59.524Z,27.20
2022-08-09T19:03:27.457Z,27.10
2022-08-09T19:06:03.149Z,27.00
2022-08-09T19:08:31.256Z,26.90
2022-08-09T19:10:58.872Z,26.70
2022-08-09T19:13:38.613Z,26.60
2022-08-09T19:16:13.261Z,26.50
2022-08-09T19:18:45.687Z,26.70
2022-08-09T19:21:12.811Z,26.40
2022-08-09T19:24:32.096Z,26.40
2022-08-09T19:26:32.441Z,26.00
2022-08-09T19:29:09.726Z,25.70
2022-08-09T19:31:46.547Z,25.70
2022-08-09T19:34:22.664Z,25.70
2022-08-09T19:36:55.669Z,25.80
2022-08-09T19:39:29.165Z,25.70
2022-08-09T19:42:14.924Z,25.70
2022-08-09T19:44:50.781Z,25.50
2022-08-09T19:47:23.712Z,25.70
2022-08-09T19:50:06.632Z,25.60
2022-08-09T19:52:36.447Z,25.60
2022-08-09T19:55:04.608Z,25.80
2022-08-09T19:57:31.609Z,25.60
2022-08-09T20:00:07.400Z,25.60
2022-08-09T20:04:11.550Z,25.60
2022-08-09T20:05:25.913Z,25.30
2022-08-09T20:07:58.813Z,25.30
2022-08-09T20:10:36.556Z,25.20
2022-08-09T20:13:06.250Z,25.10
2022-08-09T20:16:34.713Z,25.10
2022-08-09T20:18:22.217Z,25.20
2022-08-09T20:20:51.158Z,25.10
2022-08-09T20:23:21.013Z,25.10
2022-08-09T20:25:52.323Z,25.00
2022-08-09T20:28:34.332Z,25.10
2022-08-09T20:31:13.856Z,24.80
2022-08-09T20:33:44.284Z,24.90
2022-08-09T20:36:12.877Z,24.80
2022-08-09T20:39:28.507Z,24.70
2022-08-09T20:41:34.761Z,24.80
2022-08-09T20:44:10.127Z,24.80
2022-08-09T20:46:43.324Z,24.70
2022-08-09T20:49:16.115Z,24.70
2022-08-09T20:51:44.311Z,24.70
2022-08-09T20:54:16.626Z,24.70
2022-08-09T20:56:49.713Z,24.60
2022-08-09T20:59:50.332Z,24.70
2022-08-09T21:02:10.905Z,24.70
2022-08-09T21:05:56.479Z,24.60
2022-08-09T21:07:38.757Z,24.60
2022-08-09T21:10:08.647Z,24.60
2022-08-09T21:12:37.857Z,24.60
2022-08-09T21:15:05.660Z,24.50
2022-08-09T21:18:21.687Z,24.30
2022-08-09T21:20:26.941Z,24.40
2022-08-09T21:22:57.819Z,24.50
2022-08-09T21:25:44.143Z,24.50
2022-08-09T21:28:35.057Z,24.40
2022-08-09T21:31:18.146Z,24.40
2022-08-09T21:33:50.703Z,24.50
2022-08-09T21:36:25.774Z,24.50
2022-08-09T21:38:57.299Z,24.40
2022-08-09T21:42:03.896Z,24.40
2022-08-09T21:44:32.983Z,24.40
2022-08-09T21:47:03.921Z,24.40
2022-08-09T21:49:40.430Z,24.50
2022-08-09T21:52:14.634Z,24.50
2022-08-09T21:54:50.776Z,24.50
2022-08-09T21:57:38.764Z,24.50
2022-08-09T22:00:25.361Z,24.50
2022-08-09T22:02:58.818Z,24.60
2022-08-09T22:05:35.487Z,24.40
2022-08-09T22:08:06.450Z,24.30
2022-08-09T22:10:34.149Z,24.30
2022-08-09T22:13:07.201Z,24.30
2022-08-09T22:15:38.254Z,24.20
2022-08-09T22:18:12.159Z,24.30
2022-08-09T22:20:40.340Z,24.10
2022-08-09T22:23:10.314Z,24.30
2022-08-09T22:26:06.209Z,24.20
2022-08-09T22:28:32.491Z,24.10
2022-08-09T22:31:00.569Z,24.20
2022-08-09T22:33:48.580Z,24.20
2022-08-09T22:36:14.546Z,24.20
2022-08-09T22:38:47.236Z,24.20
2022-08-09T22:41:14.199Z,24.90
2022-08-09T22:44:01.151Z,25.10
2022-08-09T22:48:10.862Z,25.50
2022-08-09T22:49:15.465Z,25.80
2022-08-09T22:51:43.360Z,26.10
2022-08-09T22:54:17.026Z,26.30
2022-08-09T22:56:50.751Z,26.40
2022-08-09T22:59:55.833Z,26.60
2022-08-09T23:02:04.908Z,26.60
2022-08-09T23:04:32.761Z,26.70
2022-08-09T23:07:18.651Z,26.60
2022-08-09T23:10:05.823Z,26.60
2022-08-09T23:12:32.736Z,26.70
2022-08-09T23:14:59.669Z,26.50
2022-08-09T23:17:27.018Z,26.60
2022-08-09T23:20:02.495Z,26.60
2022-08-09T23:22:35.849Z,26.60
2022-08-09T23:25:04.399Z,26.70
2022-08-09T23:27:31.681Z,26.60
2022-08-09T23:29:58.658Z,26.60
2022-08-09T23:32:25.570Z,26.60
2022-08-09T23:34:52.542Z,26.70
2022-08-09T23:37:21.303Z,26.70
2022-08-09T23:39:49.796Z,26.50
2022-08-09T23:42:16.777Z,26.60
2022-08-09T23:44:43.699Z,26.70
2022-08-09T23:47:10.802Z,26.60
2022-08-09T23:49:37.744Z,26.70
2022-08-09T23:52:04.847Z,26.70
2022-08-09T23:54:31.813Z,26.70
2022-08-09T23:56:59.161Z,26.60
2022-08-09T23:59:46.298Z,26.60
